createdAt,value
2018-12-15T00:02:13.294Z,37.23
2018-12-15T00:04:40.380Z,32.50
2018-12-15T00:07:07.554Z,32.42
2018-12-15T00:09:34.628Z,32.78
2018-12-15T00:12:01.687Z,32.00
2018-12-15T00:14:28.866Z,32.03
2018-12-15T00:16:56.024Z,30.12
2018-12-15T00:19:23.189Z,30.23
2018-12-15T00:21:50.247Z,35.15
2018-12-15T00:24:17.342Z,31.40
2018-12-15T00:26:44.523Z,32.17
2018-12-15T00:29:11.557Z,33.50
2018-12-15T00:31:38.620Z,34.98
2018-12-15T00:34:05.678Z,33.85
2018-12-15T00:36:32.750Z,31.82
2018-12-15T00:38:59.805Z,29.98
2018-12-15T00:41:26.862Z,31.50
2018-12-15T00:43:53.958Z,31.87
2018-12-15T00:46:21.016Z,35.90
2018-12-15T00:48:48.071Z,30.45
2018-12-15T00:51:15.143Z,29.92
2018-12-15T00:53:42.202Z,32.98
2018-12-15T00:56:09.366Z,29.90
2018-12-15T00:58:36.435Z,30.77
2018-12-15T01:01:03.618Z,34.55
2018-12-15T01:03:30.787Z,34.65
2018-12-15T01:05:57.857Z,30.23
2018-12-15T01:08:24.910Z,30.65
2018-12-15T01:10:52.070Z,31.20
2018-12-15T01:13:19.251Z,30.80
2018-12-15T01:15:46.532Z,32.95
2018-12-15T01:18:14.218Z,30.97
2018-12-15T01:20:41.382Z,31.30
2018-12-15T01:23:08.662Z,31.42
2018-12-15T01:25:35.824Z,32.35
2018-12-15T01:28:03.207Z,30.45
2018-12-15T01:30:30.358Z,33.55
2018-12-15T01:32:57.386Z,29.95
2018-12-15T01:35:24.452Z,31.95
2018-12-15T01:37:51.501Z,31.62
2018-12-15T01:40:18.774Z,35.03
2018-12-15T01:42:45.821Z,30.57
2018-12-15T01:45:13.194Z,29.02
2018-12-15T01:47:40.262Z,34.40
2018-12-15T01:50:07.638Z,30.85
2018-12-15T01:52:34.742Z,31.42
2018-12-15T01:55:01.813Z,34.40
2018-12-15T01:57:28.862Z,31.00
2018-12-15T01:59:55.914Z,32.50
2018-12-15T02:02:23.070Z,33.30
2018-12-15T02:04:50.234Z,32.08
2018-12-15T02:07:17.402Z,31.00
2018-12-15T02:09:44.458Z,32.53
2018-12-15T02:12:11.631Z,29.90
2018-12-15T02:14:38.811Z,30.15
2018-12-15T02:17:05.902Z,30.27
2018-12-15T02:19:33.492Z,28.80
2018-12-15T02:22:00.549Z,29.12
2018-12-15T02:24:27.614Z,32.00
2018-12-15T02:26:54.997Z,27.65
2018-12-15T02:29:22.043Z,32.23
2018-12-15T02:31:49.221Z,31.33
2018-12-15T02:34:16.282Z,27.70
2018-12-15T02:36:43.358Z,28.38
2018-12-15T02:39:10.522Z,30.60
2018-12-15T02:41:37.690Z,30.27
2018-12-15T02:44:04.859Z,28.77
2018-12-15T02:46:31.926Z,28.98
2018-12-15T02:48:59.085Z,28.67
2018-12-15T02:51:26.155Z,29.25
2018-12-15T02:53:53.222Z,28.75
2018-12-15T02:56:20.270Z,27.62
2018-12-15T02:58:47.322Z,26.45
2018-12-15T03:01:14.379Z,29.55
2018-12-15T03:03:41.447Z,26.33
2018-12-15T03:06:08.503Z,27.52
2018-12-15T03:08:35.558Z,28.47
2018-12-15T03:11:02.734Z,27.62
2018-12-15T03:13:29.893Z,27.67
2018-12-15T03:15:57.060Z,28.25
2018-12-15T03:18:24.248Z,26.65
2018-12-15T03:20:58.742Z,28.42
2018-12-15T03:23:26.020Z,26.57
2018-12-15T03:25:53.071Z,26.17
2018-12-15T03:28:20.132Z,26.25
2018-12-15T03:30:47.191Z,25.75
2018-12-15T03:33:14.246Z,26.30
2018-12-15T03:35:41.378Z,26.73
2018-12-15T03:38:08.443Z,29.42
2018-12-15T03:40:35.618Z,25.72
2018-12-15T03:43:02.788Z,25.65
2018-12-15T03:45:29.841Z,26.40
2018-12-15T03:47:56.895Z,25.48
2018-12-15T03:50:24.078Z,27.98
2018-12-15T03:52:51.278Z,26.65
2018-12-15T03:55:18.377Z,26.15
2018-12-15T03:57:45.447Z,25.57
2018-12-15T04:00:12.855Z,26.97
2018-12-15T04:02:39.924Z,24.32
2018-12-15T04:05:07.066Z,24.55
2018-12-15T04:07:34.233Z,27.00
2018-12-15T04:10:01.308Z,25.05
2018-12-15T04:12:28.427Z,24.82
2018-12-15T04:14:55.482Z,25.15
2018-12-15T04:17:22.543Z,28.27
2018-12-15T04:19:49.682Z,26.50
2018-12-15T04:22:18.624Z,25.85
2018-12-15T04:24:46.025Z,25.10
2018-12-15T04:27:13.072Z,26.80
2018-12-15T04:29:40.141Z,26.20
2018-12-15T04:32:07.182Z,27.40
2018-12-15T04:34:34.231Z,26.45
2018-12-15T04:37:01.394Z,25.68
2018-12-15T04:39:28.450Z,26.20
2018-12-15T04:41:55.615Z,27.48
2018-12-15T04:44:22.676Z,25.50
2018-12-15T04:46:49.987Z,26.33
2018-12-15T04:49:17.154Z,27.45
2018-12-15T04:51:44.303Z,26.42
2018-12-15T04:54:11.378Z,25.90
2018-12-15T04:56:38.447Z,27.40
2018-12-15T04:59:05.515Z,26.93
2018-12-15T05:01:32.679Z,26.73
2018-12-15T05:03:59.730Z,27.27
2018-12-15T05:06:26.788Z,27.85
2018-12-15T05:08:53.839Z,26.55
2018-12-15T05:11:20.898Z,26.82
2018-12-15T05:13:47.963Z,25.30
2018-12-15T05:16:15.143Z,26.87
2018-12-15T05:18:42.218Z,25.25
2018-12-15T05:21:09.271Z,25.48
2018-12-15T05:23:36.322Z,26.52
2018-12-15T05:26:03.519Z,27.50
2018-12-15T05:28:30.574Z,25.70
2018-12-15T05:30:57.620Z,28.07
2018-12-15T05:33:24.669Z,29.27
2018-12-15T05:35:51.728Z,27.93
2018-12-15T05:38:18.886Z,24.55
2018-12-15T05:40:46.045Z,28.73
2018-12-15T05:43:13.103Z,25.62
2018-12-15T05:45:40.194Z,25.57
2018-12-15T05:48:07.251Z,25.32
2018-12-15T05:50:34.299Z,25.30
2018-12-15T05:53:01.366Z,24.67
2018-12-15T05:55:28.424Z,26.02
2018-12-15T05:57:55.473Z,26.42
2018-12-15T06:00:22.683Z,28.23
2018-12-15T06:02:49.863Z,27.77
2018-12-15T06:05:17.236Z,27.42
2018-12-15T06:07:44.714Z,26.40
2018-12-15T06:10:11.885Z,23.32
2018-12-15T06:12:38.934Z,23.65
2018-12-15T06:15:06.420Z,23.32
2018-12-15T06:17:33.574Z,24.40
2018-12-15T06:20:00.630Z,26.65
2018-12-15T06:22:27.711Z,25.68
2018-12-15T06:24:54.775Z,29.10
2018-12-15T06:27:21.833Z,27.50
2018-12-15T06:29:48.879Z,29.57
2018-12-15T06:32:15.923Z,25.40
2018-12-15T06:34:42.958Z,27.17
2018-12-15T06:37:10.014Z,24.00
2018-12-15T06:39:37.071Z,25.40
2018-12-15T06:42:04.142Z,25.35
2018-12-15T06:44:31.214Z,23.30
2018-12-15T06:46:58.415Z,23.47
2018-12-15T06:49:26.195Z,26.30
2018-12-15T06:51:53.257Z,27.13
2018-12-15T06:54:20.546Z,26.57
2018-12-15T06:56:47.703Z,25.57
2018-12-15T06:59:14.758Z,27.22
2018-12-15T07:01:41.825Z,25.82
2018-12-15T07:04:08.887Z,25.62
2018-12-15T07:06:36.044Z,26.30
2018-12-15T07:09:04.122Z,27.25
2018-12-15T07:11:31.286Z,25.27
2018-12-15T07:13:58.341Z,28.47
2018-12-15T07:16:25.506Z,23.80
2018-12-15T07:18:52.575Z,24.07
2018-12-15T07:21:19.633Z,24.70
2018-12-15T07:23:46.682Z,26.30
2018-12-15T07:26:13.735Z,25.80
2018-12-15T07:28:40.794Z,24.63
2018-12-15T07:31:07.934Z,26.73
2018-12-15T07:33:35.099Z,26.65
2018-12-15T07:36:02.365Z,24.05
2018-12-15T07:38:29.427Z,27.98
2018-12-15T07:40:56.689Z,26.90
2018-12-15T07:43:23.738Z,27.45
2018-12-15T07:45:50.790Z,24.63
2018-12-15T07:48:17.958Z,24.37
2018-12-15T07:50:45.011Z,26.52
2018-12-15T07:53:12.174Z,26.77
2018-12-15T07:55:39.238Z,27.70
2018-12-15T07:58:06.513Z,28.55
2018-12-15T08:00:33.783Z,30.17
2018-12-15T08:03:00.847Z,26.68
2018-12-15T08:05:28.031Z,24.52
2018-12-15T08:07:55.318Z,23.67
2018-12-15T08:10:22.784Z,26.45
2018-12-15T08:12:54.611Z,26.48
2018-12-15T08:15:21.771Z,26.27
2018-12-15T08:17:48.835Z,25.55
2018-12-15T08:20:15.911Z,24.57
2018-12-15T08:22:42.978Z,25.05
2018-12-15T08:25:10.155Z,25.43
2018-12-15T08:27:37.325Z,25.27
2018-12-15T08:30:07.420Z,27.62
2018-12-15T08:32:34.618Z,26.93
2018-12-15T08:35:01.886Z,26.30
2018-12-15T08:37:29.052Z,27.10
2018-12-15T08:39:56.218Z,27.80
2018-12-15T08:42:23.287Z,25.77
2018-12-15T08:44:50.519Z,24.80
2018-12-15T08:47:17.574Z,26.40
2018-12-15T08:49:44.650Z,26.50
2018-12-15T08:52:11.698Z,23.47
2018-12-15T08:54:38.759Z,24.70
2018-12-15T08:57:05.822Z,24.60
2018-12-15T08:59:32.867Z,25.75
2018-12-15T09:02:00.058Z,23.77
2018-12-15T09:04:27.223Z,24.35
2018-12-15T09:06:54.335Z,25.97
2018-12-15T09:09:21.413Z,24.37
2018-12-15T09:11:48.595Z,26.23
2018-12-15T09:14:15.665Z,24.27
2018-12-15T09:16:42.726Z,26.77
2018-12-15T09:19:11.355Z,27.30
2018-12-15T09:21:38.959Z,26.68
2018-12-15T09:24:06.051Z,26.02
2018-12-15T09:26:33.143Z,23.73
2018-12-15T09:29:00.200Z,24.18
2018-12-15T09:31:27.254Z,26.65
2018-12-15T09:33:54.302Z,24.75
2018-12-15T09:36:21.477Z,23.92
2018-12-15T09:38:48.591Z,24.77
2018-12-15T09:41:15.767Z,22.25
2018-12-15T09:43:43.050Z,25.30
2018-12-15T09:46:10.222Z,24.92
2018-12-15T09:48:37.274Z,22.77
2018-12-15T09:51:04.442Z,23.52
2018-12-15T09:53:31.622Z,24.67
2018-12-15T09:55:58.806Z,23.85
2018-12-15T09:58:25.966Z,23.02
2018-12-15T10:00:53.053Z,22.98
2018-12-15T10:03:20.230Z,23.18
2018-12-15T10:05:47.514Z,24.05
2018-12-15T10:08:14.575Z,22.73
2018-12-15T10:10:41.647Z,23.40
2018-12-15T10:13:08.702Z,24.40
2018-12-15T10:15:35.775Z,23.05
2018-12-15T10:18:02.951Z,24.70
2018-12-15T10:20:30.245Z,21.85
2018-12-15T10:22:57.413Z,22.45
2018-12-15T10:25:24.673Z,24.02
2018-12-15T10:27:51.741Z,21.80
2018-12-15T10:30:24.719Z,20.60
2018-12-15T10:32:52.779Z,20.40
2018-12-15T10:35:20.391Z,22.48
2018-12-15T10:37:47.685Z,21.85
2018-12-15T10:40:14.962Z,22.62
2018-12-15T10:42:42.262Z,23.32
2018-12-15T10:45:09.562Z,22.15
2018-12-15T10:47:36.830Z,24.77
2018-12-15T10:50:05.282Z,22.60
2018-12-15T10:52:32.345Z,22.50
2018-12-15T10:54:59.508Z,21.95
2018-12-15T10:57:26.682Z,24.18
2018-12-15T10:59:53.734Z,23.55
2018-12-15T11:02:21.002Z,22.85
2018-12-15T11:04:48.162Z,24.55
2018-12-15T11:07:15.534Z,22.77
2018-12-15T11:09:42.612Z,23.98
2018-12-15T11:12:09.878Z,26.33
2018-12-15T11:14:37.051Z,22.77
2018-12-15T11:17:04.354Z,22.65
2018-12-15T11:19:37.032Z,23.65
2018-12-15T11:22:00.683Z,23.42
2018-12-15T11:24:27.854Z,24.72
2018-12-15T11:26:55.159Z,25.55
2018-12-15T11:29:22.414Z,24.85
2018-12-15T11:31:49.674Z,24.52
2018-12-15T11:34:16.724Z,21.85
2018-12-15T11:36:43.782Z,27.37
2018-12-15T11:39:10.838Z,21.17
2018-12-15T11:41:37.902Z,28.25
2018-12-15T11:44:05.074Z,23.55
2018-12-15T11:46:32.346Z,22.17
2018-12-15T11:48:59.399Z,24.23
2018-12-15T11:51:26.458Z,25.15
2018-12-15T11:53:53.627Z,25.43
2018-12-15T11:56:20.803Z,24.60
2018-12-15T11:58:47.856Z,25.15
2018-12-15T12:01:15.030Z,23.83
2018-12-15T12:06:28.167Z,24.98
2018-12-15T12:08:55.222Z,25.00
2018-12-15T12:11:22.382Z,22.27
2018-12-15T12:13:49.455Z,22.87
2018-12-15T12:16:16.549Z,24.85
2018-12-15T12:18:43.654Z,26.12
2018-12-15T12:21:10.864Z,23.67
2018-12-15T12:23:37.930Z,23.85
2018-12-15T12:26:05.131Z,25.30
2018-12-15T12:28:32.191Z,25.57
2018-12-15T12:30:59.250Z,26.20
2018-12-15T12:33:26.334Z,24.10
2018-12-15T12:35:53.610Z,26.10
2018-12-15T12:38:20.662Z,25.48
2018-12-15T12:40:47.719Z,27.30
2018-12-15T12:43:14.774Z,25.75
2018-12-15T12:45:41.946Z,25.92
2018-12-15T12:48:09.223Z,51.00
2018-12-15T12:50:36.443Z,26.73
2018-12-15T12:53:03.791Z,24.55
2018-12-15T12:55:31.027Z,26.62
2018-12-15T12:57:58.137Z,22.17
2018-12-15T13:00:25.403Z,23.60
2018-12-15T13:02:52.450Z,24.15
2018-12-15T13:05:19.494Z,25.27
2018-12-15T13:07:46.642Z,23.57
2018-12-15T13:10:13.706Z,24.37
2018-12-15T13:12:40.980Z,22.73
2018-12-15T13:15:08.145Z,23.90
2018-12-15T13:17:35.206Z,22.27
2018-12-15T13:20:03.865Z,22.45
2018-12-15T13:22:31.340Z,27.62
2018-12-15T13:24:58.510Z,25.40
2018-12-15T13:27:25.578Z,24.18
2018-12-15T13:29:52.650Z,24.77
2018-12-15T13:32:19.726Z,24.75
2018-12-15T13:34:46.797Z,26.35
2018-12-15T13:37:13.971Z,24.98
2018-12-15T13:39:41.034Z,25.40
2018-12-15T13:42:08.306Z,26.17
2018-12-15T13:44:35.366Z,25.62
2018-12-15T13:47:02.661Z,27.30
2018-12-15T13:49:29.814Z,25.92
2018-12-15T13:51:57.083Z,24.37
2018-12-15T13:54:24.138Z,24.75
2018-12-15T13:56:51.199Z,28.35
2018-12-15T13:59:18.363Z,26.93
2018-12-15T14:01:45.410Z,27.75
2018-12-15T14:04:12.577Z,26.00
2018-12-15T14:06:39.739Z,28.20
2018-12-15T14:09:07.471Z,27.67
2018-12-15T14:11:34.643Z,27.07
2018-12-15T14:14:01.916Z,27.25
2018-12-15T14:16:28.980Z,25.68
2018-12-15T14:18:56.037Z,27.30
2018-12-15T14:21:23.592Z,26.97
2018-12-15T14:23:50.646Z,25.17
2018-12-15T14:26:17.698Z,25.72
2018-12-15T14:28:44.871Z,25.90
2018-12-15T14:31:12.149Z,26.55
2018-12-15T14:33:39.311Z,28.65
2018-12-15T14:36:06.374Z,24.50
2018-12-15T14:38:33.427Z,27.85
2018-12-15T14:41:00.559Z,26.55
2018-12-15T14:43:27.730Z,29.60
2018-12-15T14:45:54.795Z,25.00
2018-12-15T14:48:21.962Z,27.13
2018-12-15T14:50:49.067Z,27.60
2018-12-15T14:53:16.127Z,28.40
2018-12-15T14:55:43.287Z,26.57
2018-12-15T14:58:10.603Z,27.87
2018-12-15T15:00:37.766Z,27.90
2018-12-15T15:03:04.827Z,33.02
2018-12-15T15:05:32.083Z,26.97
2018-12-15T15:07:59.350Z,25.75
2018-12-15T15:10:26.398Z,26.33
2018-12-15T15:12:53.461Z,25.75
2018-12-15T15:15:20.536Z,27.02
2018-12-15T15:17:47.610Z,27.32
2018-12-15T15:20:14.778Z,26.30
2018-12-15T15:22:41.954Z,28.00
2018-12-15T15:25:09.118Z,28.15
2018-12-15T15:27:36.273Z,28.40
2018-12-15T15:30:04.377Z,27.40
2018-12-15T15:32:31.438Z,30.88
2018-12-15T15:34:58.512Z,22.82
2018-12-15T15:37:25.578Z,30.20
2018-12-15T15:39:52.630Z,32.35
2018-12-15T15:42:19.698Z,29.12
2018-12-15T15:44:46.758Z,29.02
2018-12-15T15:47:13.822Z,29.15
2018-12-15T15:49:40.884Z,29.98
2018-12-15T15:52:08.146Z,28.15
2018-12-15T15:54:35.262Z,30.10
2018-12-15T15:57:02.436Z,28.65
2018-12-15T15:59:29.493Z,30.17
2018-12-15T16:01:56.762Z,33.48
2018-12-15T16:04:23.806Z,31.50
2018-12-15T16:06:50.962Z,31.62
2018-12-15T16:09:18.012Z,30.43
2018-12-15T16:11:45.190Z,29.37
2018-12-15T16:14:12.250Z,34.03
2018-12-15T16:16:39.521Z,30.85
2018-12-15T16:19:06.594Z,28.52
2018-12-15T16:21:33.751Z,28.12
2018-12-15T16:24:00.918Z,31.02
2018-12-15T16:26:27.982Z,29.67
2018-12-15T16:28:55.154Z,30.62
2018-12-15T16:31:22.440Z,30.77
2018-12-15T16:33:49.718Z,29.20
2018-12-15T16:36:17.294Z,31.77
2018-12-15T16:38:44.455Z,31.87
2018-12-15T16:41:11.610Z,29.77
2018-12-15T16:43:38.790Z,31.57
2018-12-15T16:46:05.962Z,26.70
2018-12-15T16:48:33.115Z,28.12
2018-12-15T16:51:00.274Z,28.50
2018-12-15T16:53:27.322Z,28.70
2018-12-15T16:55:54.479Z,30.05
2018-12-15T16:58:21.691Z,27.67
2018-12-15T17:00:48.755Z,28.83
2018-12-15T17:03:15.806Z,29.52
2018-12-15T17:05:42.854Z,30.85
2018-12-15T17:08:09.901Z,29.85
2018-12-15T17:10:37.063Z,30.37
2018-12-15T17:13:04.343Z,39.75
2018-12-15T17:15:31.399Z,27.07
2018-12-15T17:17:58.566Z,30.75
2018-12-15T17:20:25.727Z,30.62
2018-12-15T17:22:52.890Z,28.50
2018-12-15T17:25:20.158Z,30.68
2018-12-15T17:27:47.314Z,28.45
2018-12-15T17:30:16.918Z,32.55
2018-12-15T17:32:43.959Z,30.97
2018-12-15T17:35:11.162Z,30.72
2018-12-15T17:37:38.323Z,29.15
2018-12-15T17:40:07.729Z,28.02
2018-12-15T17:42:34.833Z,27.48
2018-12-15T17:45:02.128Z,34.53
2018-12-15T17:47:29.279Z,29.35
2018-12-15T17:49:56.432Z,32.20
2018-12-15T17:52:23.609Z,27.77
2018-12-15T17:54:50.731Z,29.35
2018-12-15T17:57:17.775Z,28.32
2018-12-15T17:59:44.929Z,28.42
2018-12-15T18:02:11.978Z,30.75
2018-12-15T18:04:39.142Z,34.88
2018-12-15T18:07:06.287Z,31.42
2018-12-15T18:09:33.391Z,30.05
2018-12-15T18:12:00.658Z,32.55
2018-12-15T18:14:27.827Z,29.45
2018-12-15T18:16:54.998Z,29.72
2018-12-15T18:19:22.744Z,31.40
2018-12-15T18:21:49.795Z,28.98
2018-12-15T18:24:16.895Z,30.15
2018-12-15T18:26:44.114Z,29.02
2018-12-15T18:29:11.274Z,32.63
2018-12-15T18:31:38.330Z,29.37
2018-12-15T18:34:05.594Z,28.75
2018-12-15T18:36:32.745Z,30.85
2018-12-15T18:39:00.027Z,31.23
2018-12-15T18:41:27.178Z,31.15
2018-12-15T18:43:54.343Z,29.77
2018-12-15T18:46:21.529Z,31.65
2018-12-15T18:48:48.730Z,30.27
2018-12-15T18:51:16.429Z,32.42
2018-12-15T18:53:43.850Z,29.30
2018-12-15T18:56:10.894Z,32.28
2018-12-15T18:58:38.067Z,31.60
2018-12-15T19:01:05.288Z,30.85
2018-12-15T19:03:32.458Z,34.43
2018-12-15T19:05:59.507Z,29.95
2018-12-15T19:08:26.554Z,32.63
2018-12-15T19:10:53.610Z,31.68
2018-12-15T19:13:20.678Z,34.53
2018-12-15T19:15:47.847Z,32.10
2018-12-15T19:18:14.923Z,30.92
2018-12-15T19:20:41.974Z,30.40
2018-12-15T19:23:09.035Z,33.13
2018-12-15T19:25:36.090Z,32.10
2018-12-15T19:28:03.370Z,32.75
2018-12-15T19:30:30.422Z,35.23
2018-12-15T19:32:57.599Z,38.08
2018-12-15T19:35:24.675Z,33.65
2018-12-15T19:37:51.877Z,35.50
2018-12-15T19:40:18.939Z,36.60
2018-12-15T19:42:45.994Z,36.60
2018-12-15T19:45:13.070Z,35.17
2018-12-15T19:47:40.243Z,36.13
2018-12-15T19:50:07.529Z,34.78
2018-12-15T19:52:34.586Z,34.15
2018-12-15T19:55:01.741Z,37.13
2018-12-15T19:57:29.019Z,35.05
2018-12-15T19:59:56.070Z,34.43
2018-12-15T20:02:23.239Z,36.95
2018-12-15T20:04:50.298Z,36.10
2018-12-15T20:07:17.347Z,36.63
2018-12-15T20:09:44.515Z,36.88
2018-12-15T20:12:11.690Z,34.03
2018-12-15T20:14:38.847Z,35.55
2018-12-15T20:17:06.010Z,35.23
2018-12-15T20:19:33.198Z,34.83
2018-12-15T20:22:00.379Z,36.50
2018-12-15T20:24:27.550Z,41.28
2018-12-15T20:26:54.598Z,38.00
2018-12-15T20:29:21.658Z,39.67
2018-12-15T20:31:48.709Z,41.23
2018-12-15T20:34:17.569Z,35.65
2018-12-15T20:36:44.736Z,36.33
2018-12-15T20:39:11.896Z,37.15
2018-12-15T20:41:39.178Z,35.80
2018-12-15T20:44:06.455Z,35.55
2018-12-15T20:46:33.498Z,35.15
2018-12-15T20:49:00.708Z,50.67
2018-12-15T20:51:28.075Z,34.98
2018-12-15T20:53:55.122Z,36.50
2018-12-15T20:56:22.192Z,34.75
2018-12-15T20:58:49.246Z,35.20
2018-12-15T21:01:16.415Z,35.70
2018-12-15T21:03:43.581Z,38.15
2018-12-15T21:06:10.726Z,37.30
2018-12-15T21:08:37.775Z,37.03
2018-12-15T21:11:04.931Z,36.77
2018-12-15T21:13:32.087Z,35.43
2018-12-15T21:15:59.346Z,38.75
2018-12-15T21:18:26.718Z,36.63
2018-12-15T21:20:53.798Z,37.53
2018-12-15T21:23:20.891Z,39.23
2018-12-15T21:25:48.159Z,35.95
2018-12-15T21:28:15.318Z,38.92
2018-12-15T21:30:42.582Z,39.45
2018-12-15T21:33:09.746Z,35.75
2018-12-15T21:35:36.828Z,37.40
2018-12-15T21:38:03.987Z,35.95
2018-12-15T21:40:31.048Z,35.08
2018-12-15T21:42:58.115Z,33.40
2018-12-15T21:45:25.348Z,36.17
2018-12-15T21:47:57.656Z,36.95
2018-12-15T21:52:48.286Z,37.50
2018-12-15T21:55:15.466Z,35.17
2018-12-15T21:57:42.630Z,36.65
2018-12-15T22:00:09.971Z,36.15
2018-12-15T22:02:37.126Z,38.20
2018-12-15T22:05:04.800Z,35.17
2018-12-15T22:07:31.956Z,34.50
2018-12-15T22:09:59.241Z,33.48
2018-12-15T22:12:26.402Z,34.75
2018-12-15T22:14:53.454Z,34.43
2018-12-15T22:17:20.501Z,39.18
2018-12-15T22:19:47.555Z,33.38
2018-12-15T22:22:14.723Z,35.60
2018-12-15T22:24:42.195Z,36.60
2018-12-15T22:29:35.967Z,36.20
2018-12-15T22:32:03.239Z,36.80
2018-12-15T22:34:30.291Z,37.50
2018-12-15T22:36:57.343Z,35.58
2018-12-15T22:39:24.398Z,35.20
2018-12-15T22:41:51.686Z,36.73
2018-12-15T22:44:18.754Z,34.92
2018-12-15T22:46:45.807Z,37.15
2018-12-15T22:49:12.860Z,35.63
2018-12-15T22:51:40.020Z,41.90
2018-12-15T22:54:07.085Z,36.65
2018-12-15T22:56:34.246Z,36.90
2018-12-15T22:59:01.308Z,34.10
2018-12-15T23:01:30.598Z,34.83
2018-12-15T23:03:57.654Z,35.10
2018-12-15T23:06:24.703Z,39.30
2018-12-15T23:08:51.908Z,37.23
2018-12-15T23:13:45.563Z,38.08
2018-12-15T23:16:12.621Z,41.35
2018-12-15T23:18:39.774Z,40.50
2018-12-15T23:21:06.938Z,39.90
2018-12-15T23:28:28.139Z,47.30
2018-12-15T23:30:55.209Z,49.45
2018-12-15T23:33:22.375Z,48.28
2018-12-15T23:35:49.434Z,47.93
2018-12-15T23:38:16.482Z,50.90
2018-12-15T23:40:43.764Z,50.40
2018-12-15T23:43:11.030Z,52.65
2018-12-15T23:45:38.087Z,53.20
2018-12-15T23:48:05.279Z,53.95
2018-12-15T23:50:32.502Z,52.05
2018-12-15T23:52:59.546Z,53.92
2018-12-15T23:55:26.614Z,51.33
2018-12-15T23:57:53.674Z,48.95
